Sun Globe — 9HA2857 — position and weather

sailwx.info

Track history (hours):
 
Tides and Currents Weather Stations Pressure Air Temp Water Temp Dewpoint Dewpoint Depression Visibility Wind Speed Wind Dir Waves Ship Positions

Sun Globe

Last reported at 2015-Mar-03 04:26 UTC. Time now 2015-Mar-03 04:48 UTC.
Position N 31°59' E 120°37'.

Length 190 m; draft 7.7 m.

Type: Cargo ship. MMSI: 256415000.

Date/timePositionNaut miles runAvg speedWind from/ knotsBaromVisibWave heightAir tempDewpointWater temp
2015-Mar-03 04:26N 31°59' E 120°37'0 0.0
2015-Mar-03 03:20N 31°59' E 120°37'0 0.0
2015-Mar-03 02:26N 31°59' E 120°37'0 0.1
2015-Mar-03 01:32N 31°59' E 120°37'0 0.1
2015-Mar-03 00:32N 31°59' E 120°37'0 0.0
2015-Mar-02 23:20N 31°59' E 120°37'0 0.0
2015-Mar-02 22:32N 31°59' E 120°37'0 0.0
2015-Mar-02 21:29N 31°59' E 120°37'0 0.0
2015-Mar-02 20:32N 31°59' E 120°37'0 0.0
2015-Mar-02 19:26N 31°59' E 120°37'0 0.0
2015-Mar-02 18:32N 31°59' E 120°37'0 0.0
2015-Mar-02 17:32N 31°59' E 120°37'0 0.0
2015-Mar-02 16:26N 31°59' E 120°37'0 0.0
2015-Mar-02 15:20N 31°59' E 120°37'0 0.0
2015-Mar-02 14:32N 31°59' E 120°37'0 0.0
2015-Mar-02 13:32N 31°59' E 120°37'0 0.0
2015-Mar-02 12:14N 31°59' E 120°37'0 0.1
2015-Mar-02 11:26N 31°59' E 120°37'4 4.1
2015-Mar-02 10:33N 32°00' E 120°41'9 8.9
2015-Mar-02 09:33N 31°58' E 120°51'1110.6
2015-Mar-02 08:34N 31°48' E 120°55'10 9.7
2015-Mar-02 07:30N 31°44' E 121°07'1 0.5
2015-Mar-02 06:29N 31°44' E 121°07'0 0.0
2015-Mar-02 05:29N 31°44' E 121°07'0 0.0
2015-Mar-02 04:29N 31°44' E 121°07'0 0.0
2015-Mar-02 03:23N 31°44' E 121°07'0 0.1
2015-Mar-02 02:29N 31°44' E 121°07'0 0.1
2015-Mar-02 01:32N 31°44' E 121°07'0 0.2
2015-Mar-02 00:32N 31°44' E 121°07'0 0.0
2015-Mar-01 23:32N 31°44' E 121°07'0 0.0
2015-Mar-01 22:32N 31°44' E 121°07'0 0.0
2015-Mar-01 21:32N 31°44' E 121°07'0 0.0
2015-Mar-01 20:29N 31°44' E 121°07'0 0.1
2015-Mar-01 19:32N 31°44' E 121°07'0 0.0
2015-Mar-01 18:32N 31°44' E 121°07'0 0.2
2015-Mar-01 17:32N 31°44' E 121°07'0 0.1
2015-Mar-01 16:32N 31°44' E 121°07'0 0.0
2015-Mar-01 15:32N 31°44' E 121°07'0 0.1
2015-Mar-01 14:29N 31°44' E 121°07'0 0.0
2015-Mar-01 08:05N 31°44' E 121°07'0 0.0
2015-Mar-01 06:11N 31°44' E 121°07'0 0.0
2015-Mar-01 05:32N 31°44' E 121°07'0 0.1
2015-Mar-01 04:17N 31°44' E 121°07'0 0.0
2015-Mar-01 03:29N 31°44' E 121°07'0 0.0
2015-Mar-01 02:29N 31°44' E 121°07'0 0.1
2015-Mar-01 01:32N 31°44' E 121°07'0 0.1
2015-Mar-01 00:32N 31°44' E 121°07'0 0.0
2015-Feb-28 22:32N 31°44' E 121°07'0 0.0
2015-Feb-28 21:32N 31°44' E 121°07'0 0.0
2015-Feb-28 20:32N 31°44' E 121°07'0 0.0
2015-Feb-28 19:32N 31°44' E 121°07'0 0.0
2015-Feb-28 18:23N 31°44' E 121°07'0 0.0
2015-Feb-28 17:17N 31°44' E 121°07'0 0.0
2015-Feb-28 16:05N 31°44' E 121°07'0 0.0
2015-Feb-28 15:32N 31°44' E 121°07'0 0.0
2015-Feb-28 14:29N 31°44' E 121°07'0 0.1
2015-Feb-28 13:32N 31°44' E 121°07'0 0.0
2015-Feb-28 12:29N 31°44' E 121°07'0 0.1
2015-Feb-28 11:32N 31°44' E 121°07'0 0.0
2015-Feb-28 10:17N 31°44' E 121°07'0 0.1
2015-Feb-28 09:23N 31°44' E 121°07'0 0.0
2015-Feb-28 08:17N 31°44' E 121°07'0 0.0
2015-Feb-28 07:29N 31°44' E 121°07'0 0.1
2015-Feb-28 06:26N 31°44' E 121°07'0 0.1
2015-Feb-28 05:26N 31°44' E 121°07'0 0.0
2015-Feb-28 04:11N 31°44' E 121°07'0 0.0
2015-Feb-28 03:32N 31°44' E 121°07'0 0.1
2015-Feb-28 02:32N 31°44' E 121°07'0 0.0
2015-Feb-28 01:32N 31°44' E 121°07'0 0.0
2015-Feb-28 00:29N 31°44' E 121°07'0 0.0
2015-Feb-27 23:32N 31°44' E 121°07'0 0.0
2015-Feb-27 22:32N 31°44' E 121°07'0 0.1
2015-Feb-27 21:32N 31°44' E 121°07'0 0.1
2015-Feb-27 20:32N 31°44' E 121°07'0 0.0
2015-Feb-27 19:29N 31°44' E 121°07'0 0.0
2015-Feb-27 18:29N 31°44' E 121°07'0 0.0
2015-Feb-27 17:32N 31°44' E 121°07'0 0.0
2015-Feb-27 16:32N 31°44' E 121°07'0 0.1
2015-Feb-27 15:17N 31°44' E 121°07'0 0.0
2015-Feb-27 14:32N 31°44' E 121°07'0 0.1
2015-Feb-27 13:29N 31°44' E 121°07'0 0.0
2015-Feb-27 12:29N 31°44' E 121°07'0 0.0
2015-Feb-27 11:32N 31°44' E 121°07'0 0.1
2015-Feb-27 10:29N 31°44' E 121°07'0 0.1
2015-Feb-27 09:32N 31°44' E 121°07'0 0.1
2015-Feb-27 08:32N 31°44' E 121°07'0 0.0
2015-Feb-27 07:26N 31°44' E 121°07'0 0.0
2015-Feb-27 06:32N 31°44' E 121°07'0 0.0
2015-Feb-27 05:32N 31°44' E 121°07'0 0.1
2015-Feb-27 04:32N 31°44' E 121°07'0 0.1
2015-Feb-27 03:32N 31°44' E 121°07'0 0.1
2015-Feb-27 02:32N 31°44' E 121°07'0 0.0
2015-Feb-27 01:32N 31°44' E 121°07'0 0.0
2015-Feb-27 00:32N 31°44' E 121°07'0 0.1
2015-Feb-26 23:29N 31°44' E 121°07'0 0.1
2015-Feb-26 22:32N 31°44' E 121°07'0 0.1
2015-Feb-26 21:29N 31°44' E 121°07'0 0.1
2015-Feb-26 20:32N 31°44' E 121°07'0 0.1
2015-Feb-26 19:32N 31°44' E 121°07'0 0.0
2015-Feb-26 18:20N 31°44' E 121°07'0 0.0
2015-Feb-26 17:29N 31°44' E 121°07'0 0.0
2015-Feb-26 16:23N 31°44' E 121°07'0 0.0
2015-Feb-26 15:32N 31°44' E 121°07'0 0.0
2015-Feb-26 14:29N 31°44' E 121°07'0 0.1
2015-Feb-26 13:32N 31°44' E 121°07'0 0.1
2015-Feb-26 12:29N 31°44' E 121°07'0 0.1
2015-Feb-26 11:32N 31°44' E 121°07'0 0.0
2015-Feb-26 10:17N 31°44' E 121°07'0 0.1
2015-Feb-26 09:32N 31°44' E 121°07'0 0.1
2015-Feb-26 08:29N 31°44' E 121°07'0 0.1
2015-Feb-26 07:29N 31°44' E 121°07'0 0.1
2015-Feb-26 06:32N 31°44' E 121°07'0 0.0
2015-Feb-26 05:23N 31°44' E 121°07'0 0.1
2015-Feb-26 04:32N 31°44' E 121°07'0 0.0
2015-Feb-26 03:29N 31°44' E 121°07'0 0.0
2015-Feb-26 02:23N 31°44' E 121°07'0 0.1
2015-Feb-26 01:23N 31°44' E 121°07'0 0.1
2015-Feb-26 00:29N 31°44' E 121°07'0 0.1
2015-Feb-25 23:29N 31°44' E 121°07'0 0.0
2015-Feb-25 22:32N 31°44' E 121°07'0 0.0
2015-Feb-25 21:32N 31°44' E 121°07'0 0.1
2015-Feb-25 20:32N 31°44' E 121°07'0 0.2
2015-Feb-25 19:29N 31°44' E 121°07'0 0.0
2015-Feb-25 18:32N 31°44' E 121°07'0 0.0
2015-Feb-25 17:32N 31°44' E 121°07'0 0.0
2015-Feb-25 16:29N 31°44' E 121°07'0 0.0
2015-Feb-25 15:29N 31°44' E 121°07'0 0.0
2015-Feb-25 14:29N 31°44' E 121°07'0 0.0
2015-Feb-25 13:17N 31°44' E 121°07'0 0.1
2015-Feb-25 12:29N 31°44' E 121°07'0 0.2
2015-Feb-25 11:32N 31°44' E 121°07'0 0.0
2015-Feb-25 10:29N 31°44' E 121°07'0 0.0
2015-Feb-25 09:29N 31°44' E 121°07'0 0.0
2015-Feb-25 08:32N 31°44' E 121°07'0 0.2
2015-Feb-25 07:29N 31°44' E 121°07'0 0.1
2015-Feb-25 06:32N 31°44' E 121°07'0 0.0
2015-Feb-25 05:23N 31°44' E 121°07'0 0.0
2015-Feb-25 04:29N 31°44' E 121°07'0 0.0
2015-Feb-25 03:32N 31°44' E 121°07'0 0.0
2015-Feb-25 02:29N 31°44' E 121°07'0 0.1
2015-Feb-25 01:32N 31°44' E 121°07'0 0.1
2015-Feb-25 00:32N 31°44' E 121°07'0 0.1
2015-Feb-24 23:32N 31°44' E 121°07'0 0.1
2015-Feb-24 22:32N 31°44' E 121°07'0 0.0
2015-Feb-24 21:32N 31°44' E 121°07'0 0.0
2015-Feb-24 20:29N 31°44' E 121°07'0 0.1
2015-Feb-24 19:32N 31°44' E 121°07'0 0.3
2015-Feb-24 18:29N 31°44' E 121°07'0 0.0
2015-Feb-24 17:23N 31°44' E 121°07'0 0.0
2015-Feb-24 16:23N 31°44' E 121°07'0 0.1
2015-Feb-24 15:23N 31°44' E 121°07'0 0.0
2015-Feb-24 14:05N 31°44' E 121°07'0 0.1
2015-Feb-24 13:29N 31°44' E 121°07'0 0.1
2015-Feb-24 12:29N 31°44' E 121°07'0 0.1
2015-Feb-24 11:29N 31°44' E 121°07'0 0.0
2015-Feb-24 10:29N 31°44' E 121°07'0 0.0
2015-Feb-24 09:32N 31°44' E 121°07'0 0.0
2015-Feb-24 08:32N 31°44' E 121°07'0 0.0
2015-Feb-24 07:23N 31°44' E 121°07'0 0.2
2015-Feb-24 06:17N 31°44' E 121°07'0 0.0
2015-Feb-24 04:17N 31°44' E 121°07'0 0.0
2015-Feb-24 03:32N 31°44' E 121°07'0 0.0
2015-Feb-24 02:32N 31°44' E 121°07'0 0.0
2015-Feb-24 01:26N 31°44' E 121°07'0 0.0
2015-Feb-24 00:29N 31°44' E 121°07'0 0.2
2015-Feb-23 23:32N 31°44' E 121°07'0 0.0
2015-Feb-23 22:32N 31°44' E 121°07'0 0.0
2015-Feb-23 21:29N 31°44' E 121°07'0 0.0
2015-Feb-23 20:32N 31°44' E 121°07'0 0.0
2015-Feb-23 19:32N 31°44' E 121°07'0 0.2
2015-Feb-23 18:26N 31°44' E 121°07'0 0.1
2015-Feb-23 17:29N 31°44' E 121°07'0 0.0
2015-Feb-23 16:23N 31°44' E 121°07'0 0.0
2015-Feb-23 15:29N 31°44' E 121°07'0 0.0
2015-Feb-23 14:32N 31°44' E 121°07'0 0.0
2015-Feb-23 13:29N 31°44' E 121°07'0 0.0
2015-Feb-23 12:29N 31°44' E 121°07'0 0.1
2015-Feb-23 11:33N 31°44' E 121°07'0 0.2
2015-Feb-23 10:33N 31°44' E 121°07'0 0.1
2015-Feb-23 09:33N 31°44' E 121°07'9 9.0
2015-Feb-23 08:34N 31°38' E 121°15'1010.4
2015-Feb-23 07:33N 31°30' E 121°23'0 0.0
2015-Feb-23 06:31N 31°30' E 121°23'0 0.0
2015-Feb-23 05:31N 31°30' E 121°23'0 0.0
2015-Feb-23 04:31N 31°30' E 121°23'0 0.0
2015-Feb-23 03:31N 31°30' E 121°23'0 0.0
2015-Feb-23 02:31N 31°30' E 121°23'0 0.0
2015-Feb-23 01:31N 31°30' E 121°23'0 0.0
2015-Feb-23 00:31N 31°30' E 121°23'0 0.0
2015-Feb-22 23:31N 31°30' E 121°23'0 0.0
2015-Feb-22 22:31N 31°30' E 121°23'0 0.0
2015-Feb-22 21:31N 31°30' E 121°23'0 0.0
2015-Feb-22 20:31N 31°30' E 121°23'0 0.0
2015-Feb-22 19:31N 31°30' E 121°23'0 0.0
2015-Feb-22 18:31N 31°30' E 121°23'0 0.0
2015-Feb-22 17:31N 31°30' E 121°23'0 0.0
2015-Feb-22 16:31N 31°30' E 121°23'0 0.0
2015-Feb-22 15:31N 31°30' E 121°23'0 0.0
2015-Feb-22 14:31N 31°30' E 121°23'0 0.0
2015-Feb-22 13:31N 31°30' E 121°23'0 0.0
2015-Feb-22 12:31N 31°30' E 121°23'0 0.0
2015-Feb-22 11:31N 31°30' E 121°23'0 0.0
2015-Feb-22 10:31N 31°30' E 121°23'0 0.0
2015-Feb-22 09:31N 31°30' E 121°23'0 0.0
2015-Feb-22 08:31N 31°30' E 121°23'0 0.0
2015-Feb-22 07:31N 31°30' E 121°23'0 0.0
2015-Feb-22 06:32N 31°30' E 121°23'7 7.2
2015-Feb-22 05:33N 31°26' E 121°30'1111.5
2015-Feb-22 04:33N 31°20' E 121°41'1212.4
2015-Feb-22 03:33N 31°16' E 121°55'1212.0
2015-Feb-22 02:33N 31°13' E 122°08'1211.8
2015-Feb-22 01:33N 31°06' E 122°20'1110.1
2015-Feb-22 00:31N 31°07' E 122°32'7 1.1
2015-Feb-21 18:29N 31°04' E 122°40'9 3.0
2015-Feb-21 15:31N 31°08' E 122°31'  
Track history (hours):
 
Tides and Currents Weather Stations Pressure Air Temp Water Temp Dewpoint Dewpoint Depression Visibility Wind Speed Wind Dir Waves Ship Positions

Sun Globe

Last reported at 2015-Mar-03 04:26 UTC. Time now 2015-Mar-03 04:48 UTC.
Position N 31°59' E 120°37'.

Length 190 m; draft 7.7 m.

Type: Cargo ship. MMSI: 256415000.

Date/timePositionNaut miles runAvg speedWind from/ knotsBaromVisibWave heightAir tempDewpointWater temp
2015-Mar-03 04:26N 31°59' E 120°37'0 0.0
2015-Mar-03 03:20N 31°59' E 120°37'0 0.0
2015-Mar-03 02:26N 31°59' E 120°37'0 0.1
2015-Mar-03 01:32N 31°59' E 120°37'0 0.1
2015-Mar-03 00:32N 31°59' E 120°37'0 0.0
2015-Mar-02 23:20N 31°59' E 120°37'0 0.0
2015-Mar-02 22:32N 31°59' E 120°37'0 0.0
2015-Mar-02 21:29N 31°59' E 120°37'0 0.0
2015-Mar-02 20:32N 31°59' E 120°37'0 0.0
2015-Mar-02 19:26N 31°59' E 120°37'0 0.0
2015-Mar-02 18:32N 31°59' E 120°37'0 0.0
2015-Mar-02 17:32N 31°59' E 120°37'0 0.0
2015-Mar-02 16:26N 31°59' E 120°37'0 0.0
2015-Mar-02 15:20N 31°59' E 120°37'0 0.0
2015-Mar-02 14:32N 31°59' E 120°37'0 0.0
2015-Mar-02 13:32N 31°59' E 120°37'0 0.0
2015-Mar-02 12:14N 31°59' E 120°37'0 0.1
2015-Mar-02 11:26N 31°59' E 120°37'4 4.1
2015-Mar-02 10:33N 32°00' E 120°41'9 8.9
2015-Mar-02 09:33N 31°58' E 120°51'1110.6
2015-Mar-02 08:34N 31°48' E 120°55'10 9.7
2015-Mar-02 07:30N 31°44' E 121°07'1 0.5
2015-Mar-02 06:29N 31°44' E 121°07'0 0.0
2015-Mar-02 05:29N 31°44' E 121°07'0 0.0
2015-Mar-02 04:29N 31°44' E 121°07'0 0.0
2015-Mar-02 03:23N 31°44' E 121°07'0 0.1
2015-Mar-02 02:29N 31°44' E 121°07'0 0.1
2015-Mar-02 01:32N 31°44' E 121°07'0 0.2
2015-Mar-02 00:32N 31°44' E 121°07'0 0.0
2015-Mar-01 23:32N 31°44' E 121°07'0 0.0
2015-Mar-01 22:32N 31°44' E 121°07'0 0.0
2015-Mar-01 21:32N 31°44' E 121°07'0 0.0
2015-Mar-01 20:29N 31°44' E 121°07'0 0.1
2015-Mar-01 19:32N 31°44' E 121°07'0 0.0
2015-Mar-01 18:32N 31°44' E 121°07'0 0.2
2015-Mar-01 17:32N 31°44' E 121°07'0 0.1
2015-Mar-01 16:32N 31°44' E 121°07'0 0.0
2015-Mar-01 15:32N 31°44' E 121°07'0 0.1
2015-Mar-01 14:29N 31°44' E 121°07'0 0.0
2015-Mar-01 08:05N 31°44' E 121°07'0 0.0
2015-Mar-01 06:11N 31°44' E 121°07'0 0.0
2015-Mar-01 05:32N 31°44' E 121°07'0 0.1
2015-Mar-01 04:17N 31°44' E 121°07'0 0.0
2015-Mar-01 03:29N 31°44' E 121°07'0 0.0
2015-Mar-01 02:29N 31°44' E 121°07'0 0.1
2015-Mar-01 01:32N 31°44' E 121°07'0 0.1
2015-Mar-01 00:32N 31°44' E 121°07'0 0.0
2015-Feb-28 22:32N 31°44' E 121°07'0 0.0
2015-Feb-28 21:32N 31°44' E 121°07'0 0.0
2015-Feb-28 20:32N 31°44' E 121°07'0 0.0
2015-Feb-28 19:32N 31°44' E 121°07'0 0.0
2015-Feb-28 18:23N 31°44' E 121°07'0 0.0
2015-Feb-28 17:17N 31°44' E 121°07'0 0.0
2015-Feb-28 16:05N 31°44' E 121°07'0 0.0
2015-Feb-28 15:32N 31°44' E 121°07'0 0.0
2015-Feb-28 14:29N 31°44' E 121°07'0 0.1
2015-Feb-28 13:32N 31°44' E 121°07'0 0.0
2015-Feb-28 12:29N 31°44' E 121°07'0 0.1
2015-Feb-28 11:32N 31°44' E 121°07'0 0.0
2015-Feb-28 10:17N 31°44' E 121°07'0 0.1
2015-Feb-28 09:23N 31°44' E 121°07'0 0.0
2015-Feb-28 08:17N 31°44' E 121°07'0 0.0
2015-Feb-28 07:29N 31°44' E 121°07'0 0.1
2015-Feb-28 06:26N 31°44' E 121°07'0 0.1
2015-Feb-28 05:26N 31°44' E 121°07'0 0.0
2015-Feb-28 04:11N 31°44' E 121°07'0 0.0
2015-Feb-28 03:32N 31°44' E 121°07'0 0.1
2015-Feb-28 02:32N 31°44' E 121°07'0 0.0
2015-Feb-28 01:32N 31°44' E 121°07'0 0.0
2015-Feb-28 00:29N 31°44' E 121°07'0 0.0
2015-Feb-27 23:32N 31°44' E 121°07'0 0.0
2015-Feb-27 22:32N 31°44' E 121°07'0 0.1
2015-Feb-27 21:32N 31°44' E 121°07'0 0.1
2015-Feb-27 20:32N 31°44' E 121°07'0 0.0
2015-Feb-27 19:29N 31°44' E 121°07'0 0.0
2015-Feb-27 18:29N 31°44' E 121°07'0 0.0
2015-Feb-27 17:32N 31°44' E 121°07'0 0.0
2015-Feb-27 16:32N 31°44' E 121°07'0 0.1
2015-Feb-27 15:17N 31°44' E 121°07'0 0.0
2015-Feb-27 14:32N 31°44' E 121°07'0 0.1
2015-Feb-27 13:29N 31°44' E 121°07'0 0.0
2015-Feb-27 12:29N 31°44' E 121°07'0 0.0
2015-Feb-27 11:32N 31°44' E 121°07'0 0.1
2015-Feb-27 10:29N 31°44' E 121°07'0 0.1
2015-Feb-27 09:32N 31°44' E 121°07'0 0.1
2015-Feb-27 08:32N 31°44' E 121°07'0 0.0
2015-Feb-27 07:26N 31°44' E 121°07'0 0.0
2015-Feb-27 06:32N 31°44' E 121°07'0 0.0
2015-Feb-27 05:32N 31°44' E 121°07'0 0.1
2015-Feb-27 04:32N 31°44' E 121°07'0 0.1
2015-Feb-27 03:32N 31°44' E 121°07'0 0.1
2015-Feb-27 02:32N 31°44' E 121°07'0 0.0
2015-Feb-27 01:32N 31°44' E 121°07'0 0.0
2015-Feb-27 00:32N 31°44' E 121°07'0 0.1
2015-Feb-26 23:29N 31°44' E 121°07'0 0.1
2015-Feb-26 22:32N 31°44' E 121°07'0 0.1
2015-Feb-26 21:29N 31°44' E 121°07'0 0.1
2015-Feb-26 20:32N 31°44' E 121°07'0 0.1
2015-Feb-26 19:32N 31°44' E 121°07'0 0.0
2015-Feb-26 18:20N 31°44' E 121°07'0 0.0
2015-Feb-26 17:29N 31°44' E 121°07'0 0.0
2015-Feb-26 16:23N 31°44' E 121°07'0 0.0
2015-Feb-26 15:32N 31°44' E 121°07'0 0.0
2015-Feb-26 14:29N 31°44' E 121°07'0 0.1
2015-Feb-26 13:32N 31°44' E 121°07'0 0.1
2015-Feb-26 12:29N 31°44' E 121°07'0 0.1
2015-Feb-26 11:32N 31°44' E 121°07'0 0.0
2015-Feb-26 10:17N 31°44' E 121°07'0 0.1
2015-Feb-26 09:32N 31°44' E 121°07'0 0.1
2015-Feb-26 08:29N 31°44' E 121°07'0 0.1
2015-Feb-26 07:29N 31°44' E 121°07'0 0.1
2015-Feb-26 06:32N 31°44' E 121°07'0 0.0
2015-Feb-26 05:23N 31°44' E 121°07'0 0.1
2015-Feb-26 04:32N 31°44' E 121°07'0 0.0
2015-Feb-26 03:29N 31°44' E 121°07'0 0.0
2015-Feb-26 02:23N 31°44' E 121°07'0 0.1
2015-Feb-26 01:23N 31°44' E 121°07'0 0.1
2015-Feb-26 00:29N 31°44' E 121°07'0 0.1
2015-Feb-25 23:29N 31°44' E 121°07'0 0.0
2015-Feb-25 22:32N 31°44' E 121°07'0 0.0
2015-Feb-25 21:32N 31°44' E 121°07'0 0.1
2015-Feb-25 20:32N 31°44' E 121°07'0 0.2
2015-Feb-25 19:29N 31°44' E 121°07'0 0.0
2015-Feb-25 18:32N 31°44' E 121°07'0 0.0
2015-Feb-25 17:32N 31°44' E 121°07'0 0.0
2015-Feb-25 16:29N 31°44' E 121°07'0 0.0
2015-Feb-25 15:29N 31°44' E 121°07'0 0.0
2015-Feb-25 14:29N 31°44' E 121°07'0 0.0
2015-Feb-25 13:17N 31°44' E 121°07'0 0.1
2015-Feb-25 12:29N 31°44' E 121°07'0 0.2
2015-Feb-25 11:32N 31°44' E 121°07'0 0.0
2015-Feb-25 10:29N 31°44' E 121°07'0 0.0
2015-Feb-25 09:29N 31°44' E 121°07'0 0.0
2015-Feb-25 08:32N 31°44' E 121°07'0 0.2
2015-Feb-25 07:29N 31°44' E 121°07'0 0.1
2015-Feb-25 06:32N 31°44' E 121°07'0 0.0
2015-Feb-25 05:23N 31°44' E 121°07'0 0.0
2015-Feb-25 04:29N 31°44' E 121°07'0 0.0
2015-Feb-25 03:32N 31°44' E 121°07'0 0.0
2015-Feb-25 02:29N 31°44' E 121°07'0 0.1
2015-Feb-25 01:32N 31°44' E 121°07'0 0.1
2015-Feb-25 00:32N 31°44' E 121°07'0 0.1
2015-Feb-24 23:32N 31°44' E 121°07'0 0.1
2015-Feb-24 22:32N 31°44' E 121°07'0 0.0
2015-Feb-24 21:32N 31°44' E 121°07'0 0.0
2015-Feb-24 20:29N 31°44' E 121°07'0 0.1
2015-Feb-24 19:32N 31°44' E 121°07'0 0.3
2015-Feb-24 18:29N 31°44' E 121°07'0 0.0
2015-Feb-24 17:23N 31°44' E 121°07'0 0.0
2015-Feb-24 16:23N 31°44' E 121°07'0 0.1
2015-Feb-24 15:23N 31°44' E 121°07'0 0.0
2015-Feb-24 14:05N 31°44' E 121°07'0 0.1
2015-Feb-24 13:29N 31°44' E 121°07'0 0.1
2015-Feb-24 12:29N 31°44' E 121°07'0 0.1
2015-Feb-24 11:29N 31°44' E 121°07'0 0.0
2015-Feb-24 10:29N 31°44' E 121°07'0 0.0
2015-Feb-24 09:32N 31°44' E 121°07'0 0.0
2015-Feb-24 08:32N 31°44' E 121°07'0 0.0
2015-Feb-24 07:23N 31°44' E 121°07'0 0.2
2015-Feb-24 06:17N 31°44' E 121°07'0 0.0
2015-Feb-24 04:17N 31°44' E 121°07'0 0.0
2015-Feb-24 03:32N 31°44' E 121°07'0 0.0
2015-Feb-24 02:32N 31°44' E 121°07'0 0.0
2015-Feb-24 01:26N 31°44' E 121°07'0 0.0
2015-Feb-24 00:29N 31°44' E 121°07'0 0.2
2015-Feb-23 23:32N 31°44' E 121°07'0 0.0
2015-Feb-23 22:32N 31°44' E 121°07'0 0.0
2015-Feb-23 21:29N 31°44' E 121°07'0 0.0
2015-Feb-23 20:32N 31°44' E 121°07'0 0.0
2015-Feb-23 19:32N 31°44' E 121°07'0 0.2
2015-Feb-23 18:26N 31°44' E 121°07'0 0.1
2015-Feb-23 17:29N 31°44' E 121°07'0 0.0
2015-Feb-23 16:23N 31°44' E 121°07'0 0.0
2015-Feb-23 15:29N 31°44' E 121°07'0 0.0
2015-Feb-23 14:32N 31°44' E 121°07'0 0.0
2015-Feb-23 13:29N 31°44' E 121°07'0 0.0
2015-Feb-23 12:29N 31°44' E 121°07'0 0.1
2015-Feb-23 11:33N 31°44' E 121°07'0 0.2
2015-Feb-23 10:33N 31°44' E 121°07'0 0.1
2015-Feb-23 09:33N 31°44' E 121°07'9 9.0
2015-Feb-23 08:34N 31°38' E 121°15'1010.4
2015-Feb-23 07:33N 31°30' E 121°23'0 0.0
2015-Feb-23 06:31N 31°30' E 121°23'0 0.0
2015-Feb-23 05:31N 31°30' E 121°23'0 0.0
2015-Feb-23 04:31N 31°30' E 121°23'0 0.0
2015-Feb-23 03:31N 31°30' E 121°23'0 0.0
2015-Feb-23 02:31N 31°30' E 121°23'0 0.0
2015-Feb-23 01:31N 31°30' E 121°23'0 0.0
2015-Feb-23 00:31N 31°30' E 121°23'0 0.0
2015-Feb-22 23:31N 31°30' E 121°23'0 0.0
2015-Feb-22 22:31N 31°30' E 121°23'0 0.0
2015-Feb-22 21:31N 31°30' E 121°23'0 0.0
2015-Feb-22 20:31N 31°30' E 121°23'0 0.0
2015-Feb-22 19:31N 31°30' E 121°23'0 0.0
2015-Feb-22 18:31N 31°30' E 121°23'0 0.0
2015-Feb-22 17:31N 31°30' E 121°23'0 0.0
2015-Feb-22 16:31N 31°30' E 121°23'0 0.0
2015-Feb-22 15:31N 31°30' E 121°23'0 0.0
2015-Feb-22 14:31N 31°30' E 121°23'0 0.0
2015-Feb-22 13:31N 31°30' E 121°23'0 0.0
2015-Feb-22 12:31N 31°30' E 121°23'0 0.0
2015-Feb-22 11:31N 31°30' E 121°23'0 0.0
2015-Feb-22 10:31N 31°30' E 121°23'0 0.0
2015-Feb-22 09:31N 31°30' E 121°23'0 0.0
2015-Feb-22 08:31N 31°30' E 121°23'0 0.0
2015-Feb-22 07:31N 31°30' E 121°23'0 0.0
2015-Feb-22 06:32N 31°30' E 121°23'7 7.2
2015-Feb-22 05:33N 31°26' E 121°30'1111.5
2015-Feb-22 04:33N 31°20' E 121°41'1212.4
2015-Feb-22 03:33N 31°16' E 121°55'1212.0
2015-Feb-22 02:33N 31°13' E 122°08'1211.8
2015-Feb-22 01:33N 31°06' E 122°20'1110.1
2015-Feb-22 00:31N 31°07' E 122°32'7 1.1
2015-Feb-21 18:29N 31°04' E 122°40'9 3.0
2015-Feb-21 15:31N 31°08' E 122°31'  

Dump ship's entire track history